createdAt,value
2023-02-12T00:01:51.108Z,20.62
2023-02-12T00:04:59.815Z,19.55
2023-02-12T00:08:07.141Z,18.73
2023-02-12T00:11:13.035Z,19.02
2023-02-12T00:14:18.643Z,17.85
2023-02-12T00:17:24.475Z,18.37
2023-02-12T00:20:30.286Z,18.50
2023-02-12T00:23:37.510Z,16.23
2023-02-12T00:26:43.444Z,17.42
2023-02-12T00:29:49.516Z,17.30
2023-02-12T00:32:56.490Z,16.52
2023-02-12T00:36:11.830Z,18.17
2023-02-12T00:39:18.611Z,18.05
2023-02-12T00:42:24.093Z,18.27
2023-02-12T00:45:30.134Z,19.02
2023-02-12T00:48:35.603Z,21.02
2023-02-12T00:51:41.865Z,22.27
2023-02-12T00:54:48.882Z,23.40
2023-02-12T00:57:54.661Z,21.17
2023-02-12T01:01:00.303Z,20.60
2023-02-12T01:04:07.617Z,21.95
2023-02-12T01:07:13.636Z,22.17
2023-02-12T01:10:22.155Z,21.52
2023-02-12T01:13:29.148Z,21.70
2023-02-12T01:16:38.332Z,24.57
2023-02-12T01:19:44.600Z,16.42
2023-02-12T01:22:49.859Z,21.57
2023-02-12T01:25:57.270Z,22.17
2023-02-12T01:29:08.089Z,24.37
2023-02-12T01:32:14.239Z,24.98
2023-02-12T01:35:19.656Z,22.55
2023-02-12T01:38:25.436Z,21.23
2023-02-12T01:41:36.575Z,22.52
2023-02-12T01:44:47.048Z,20.77
2023-02-12T01:47:52.846Z,21.82
2023-02-12T01:50:58.786Z,20.12
2023-02-12T01:54:07.307Z,21.60
2023-02-12T01:57:15.144Z,22.05
2023-02-12T02:00:26.747Z,22.60
2023-02-12T02:03:31.874Z,23.35
2023-02-12T02:06:42.428Z,22.32
2023-02-12T02:09:50.780Z,23.67
2023-02-12T02:13:16.182Z,21.97
2023-02-12T02:16:31.977Z,21.33
2023-02-12T02:20:18.324Z,22.62
2023-02-12T02:24:13.867Z,20.62
2023-02-12T02:27:31.169Z,21.45
2023-02-12T02:31:09.570Z,21.12
2023-02-12T02:34:23.396Z,16.17
2023-02-12T02:37:57.189Z,19.75
2023-02-12T02:41:29.692Z,18.17
2023-02-12T02:44:52.297Z,19.23
2023-02-12T02:48:11.491Z,19.20
2023-02-12T02:51:24.226Z,18.65
2023-02-12T02:54:39.423Z,19.15
2023-02-12T02:57:58.354Z,20.45
2023-02-12T03:01:08.145Z,17.73
2023-02-12T03:04:19.419Z,16.70
2023-02-12T03:07:39.613Z,18.23
2023-02-12T03:10:51.772Z,17.98
2023-02-12T03:14:24.488Z,18.65
2023-02-12T03:17:45.854Z,17.50
2023-02-12T03:21:02.068Z,18.48
2023-02-12T03:24:32.126Z,18.35
2023-02-12T03:27:48.515Z,21.25
2023-02-12T03:31:27.693Z,19.17
2023-02-12T03:35:05.773Z,19.98
2023-02-12T03:38:47.539Z,18.45
2023-02-12T03:42:19.966Z,17.50
2023-02-12T03:45:35.426Z,18.52
2023-02-12T03:48:53.264Z,18.07
2023-02-12T03:52:01.267Z,18.82
2023-02-12T03:55:08.086Z,18.70
2023-02-12T03:58:15.586Z,18.87
2023-02-12T04:01:20.754Z,17.48
2023-02-12T04:04:25.592Z,17.57
2023-02-12T04:07:32.081Z,17.37
2023-02-12T04:10:46.354Z,18.75
2023-02-12T04:14:06.134Z,18.95
2023-02-12T04:17:29.198Z,19.50
2023-02-12T04:20:46.839Z,20.37
2023-02-12T04:24:30.186Z,19.15
2023-02-12T04:27:49.603Z,19.27
2023-02-12T04:31:14.041Z,14.07
2023-02-12T04:34:37.154Z,19.92
2023-02-12T04:38:04.499Z,19.52
2023-02-12T04:41:10.411Z,18.87
2023-02-12T04:44:35.799Z,19.20
2023-02-12T04:47:41.714Z,20.52
2023-02-12T04:50:54.765Z,19.25
2023-02-12T04:54:00.142Z,20.40
2023-02-12T04:57:06.759Z,20.95
2023-02-12T05:00:13.005Z,21.75
2023-02-12T05:03:19.174Z,21.25
2023-02-12T05:06:26.787Z,22.27
2023-02-12T05:09:35.113Z,21.48
2023-02-12T05:12:40.998Z,22.00
2023-02-12T05:15:46.620Z,22.17
2023-02-12T05:18:45.338Z,20.97
2023-02-12T05:21:37.952Z,20.72
2023-02-12T05:24:43.993Z,21.87
2023-02-12T05:27:49.450Z,22.58
2023-02-12T05:30:56.074Z,21.37
2023-02-12T05:34:02.250Z,21.87
2023-02-12T05:37:07.817Z,21.82
2023-02-12T05:40:13.247Z,22.32
2023-02-12T05:43:18.744Z,22.98
2023-02-12T05:46:24.310Z,22.30
2023-02-12T05:49:30.174Z,20.85
2023-02-12T05:52:35.060Z,23.70
2023-02-12T05:55:40.421Z,24.05
2023-02-12T05:58:45.864Z,21.65
2023-02-12T06:01:54.095Z,23.75
2023-02-12T06:05:00.666Z,22.95
2023-02-12T06:08:06.912Z,22.17
2023-02-12T06:11:22.086Z,23.45
2023-02-12T06:14:32.882Z,22.93
2023-02-12T06:17:40.281Z,22.50
2023-02-12T06:20:46.773Z,22.05
2023-02-12T06:23:52.485Z,24.12
2023-02-12T06:26:58.403Z,24.55
2023-02-12T06:30:04.772Z,23.73
2023-02-12T06:33:10.639Z,23.95
2023-02-12T06:36:19.219Z,24.75
2023-02-12T06:39:18.655Z,24.50
2023-02-12T06:42:12.399Z,23.67
2023-02-12T06:45:18.984Z,21.12
2023-02-12T06:48:25.245Z,22.87
2023-02-12T06:51:33.099Z,24.55
2023-02-12T06:54:38.356Z,23.12
2023-02-12T06:57:44.549Z,24.32
2023-02-12T07:00:50.334Z,22.85
2023-02-12T07:03:56.602Z,24.98
2023-02-12T07:07:03.238Z,21.93
2023-02-12T07:10:09.862Z,22.13
2023-02-12T07:13:15.979Z,21.45
2023-02-12T07:16:24.016Z,22.42
2023-02-12T07:19:29.819Z,21.15
2023-02-12T07:22:35.806Z,23.45
2023-02-12T07:25:42.265Z,22.02
2023-02-12T07:28:48.283Z,22.62
2023-02-12T07:31:53.177Z,21.37
2023-02-12T07:34:59.887Z,23.32
2023-02-12T07:38:05.744Z,22.10
2023-02-12T07:41:23.292Z,22.02
2023-02-12T07:44:29.341Z,22.30
2023-02-12T07:47:35.613Z,22.27
2023-02-12T07:50:40.721Z,23.55
2023-02-12T07:53:46.377Z,24.02
2023-02-12T07:56:53.703Z,22.60
2023-02-12T07:59:52.932Z,21.57
2023-02-12T08:02:59.838Z,22.60
2023-02-12T08:06:06.211Z,21.17
2023-02-12T08:09:13.596Z,22.93
2023-02-12T08:12:18.852Z,21.95
2023-02-12T08:15:26.667Z,21.48
2023-02-12T08:18:32.488Z,21.17
2023-02-12T08:21:42.744Z,18.27
2023-02-12T08:24:49.568Z,17.50
2023-02-12T08:27:56.487Z,16.27
2023-02-12T08:31:01.738Z,16.07
2023-02-12T08:34:08.914Z,14.33
2023-02-12T08:37:15.525Z,14.40
2023-02-12T08:40:22.186Z,11.45
2023-02-12T08:43:27.685Z,10.60
2023-02-12T08:46:36.410Z,5.97
2023-02-12T08:49:43.694Z,36.17
2023-02-12T08:52:49.741Z,38.85
2023-02-12T08:55:58.341Z,8.93
2023-02-12T08:59:04.813Z,7.42
2023-02-12T09:02:12.968Z,7.55
2023-02-12T09:05:18.666Z,19.17
2023-02-12T09:08:24.402Z,2.67
2023-02-12T09:11:33.833Z,4.53
2023-02-12T09:14:39.341Z,4.33
2023-02-12T09:17:47.917Z,5.30
2023-02-12T09:20:57.214Z,2.62
2023-02-12T09:24:02.187Z,2.33
2023-02-12T09:27:07.704Z,1.90
2023-02-12T09:30:13.232Z,9.50
2023-02-12T09:33:12.464Z,3.85
2023-02-12T09:36:20.608Z,2.45
2023-02-12T09:39:26.171Z,5.33
2023-02-12T09:42:44.364Z,22.60
2023-02-12T09:45:55.194Z,2.40
2023-02-12T09:49:16.756Z,3.25
2023-02-12T09:52:33.435Z,1.30
2023-02-12T09:55:46.177Z,1.55
2023-02-12T09:58:57.133Z,2.05
2023-02-12T10:02:02.730Z,1.70
2023-02-12T10:05:08.798Z,4.45
2023-02-12T10:08:31.994Z,2.95
2023-02-12T10:12:10.807Z,4.00
2023-02-12T10:15:33.774Z,1.20
2023-02-12T10:19:08.594Z,1.87
2023-02-12T10:22:51.357Z,9.85
2023-02-12T10:26:08.857Z,6.37
2023-02-12T10:29:17.754Z,7.58
2023-02-12T10:32:39.214Z,2.83
2023-02-12T10:35:44.724Z,2.05
2023-02-12T10:38:47.268Z,1.60
2023-02-12T10:42:07.588Z,1.98
2023-02-12T10:45:13.274Z,1.40
2023-02-12T10:48:22.928Z,1.80
2023-02-12T10:55:01.929Z,1.52
2023-02-12T10:58:07.439Z,1.62
2023-02-12T11:01:14.208Z,1.22
2023-02-12T11:04:39.512Z,1.70
2023-02-12T11:07:45.032Z,1.57
2023-02-12T11:10:55.731Z,1.27
2023-02-12T11:17:16.471Z,1.65
2023-02-12T11:20:38.508Z,1.50
2023-02-12T11:23:53.700Z,1.47
2023-02-12T11:27:00.173Z,1.10
2023-02-12T11:30:34.971Z,1.40
2023-02-12T11:33:49.629Z,1.62
2023-02-12T11:37:00.467Z,1.60
2023-02-12T11:40:06.723Z,1.32
2023-02-12T11:43:21.030Z,1.25
2023-02-12T11:46:27.056Z,2.98
2023-02-12T11:49:45.963Z,1.95
2023-02-12T11:52:51.988Z,12.45
2023-02-12T11:55:57.001Z,6.58
2023-02-12T11:59:04.454Z,2.42
2023-02-12T12:02:11.031Z,2.52
2023-02-12T12:05:35.457Z,11.33
2023-02-12T12:08:51.496Z,1.50
2023-02-12T12:12:07.894Z,8.70
2023-02-12T12:15:40.104Z,2.77
2023-02-12T12:19:21.932Z,3.30
2023-02-12T12:23:00.740Z,2.02
2023-02-12T12:26:16.338Z,1.93
2023-02-12T12:29:41.020Z,1.77
2023-02-12T12:32:40.474Z,2.50
2023-02-12T12:36:29.642Z,4.50
2023-02-12T12:39:55.396Z,3.98
2023-02-12T12:43:14.825Z,3.60
2023-02-12T12:46:48.538Z,3.60
2023-02-12T12:50:28.363Z,2.92
2023-02-12T12:53:50.484Z,3.25
2023-02-12T12:57:12.143Z,2.45
2023-02-12T13:00:55.441Z,2.08
2023-02-12T13:04:33.776Z,2.20
2023-02-12T13:08:08.556Z,2.70
2023-02-12T13:11:31.032Z,1.80
2023-02-12T13:15:00.261Z,1.85
2023-02-12T13:18:25.866Z,2.72
2023-02-12T13:22:04.764Z,2.08
2023-02-12T13:25:34.129Z,1.87
2023-02-12T13:28:52.499Z,2.10
2023-02-12T13:32:18.333Z,2.22
2023-02-12T13:35:32.958Z,2.25
2023-02-12T13:38:49.211Z,2.42
2023-02-12T13:41:55.655Z,1.80
2023-02-12T13:45:21.569Z,1.70
2023-02-12T13:48:40.515Z,2.27
2023-02-12T13:51:59.794Z,2.42
2023-02-12T13:55:33.919Z,2.15
2023-02-12T13:58:51.624Z,2.10
2023-02-12T14:01:59.945Z,1.82
2023-02-12T14:05:33.898Z,2.02
2023-02-12T14:08:49.535Z,2.40
2023-02-12T14:12:06.052Z,2.40
2023-02-12T14:15:40.793Z,1.80
2023-02-12T14:18:50.244Z,1.82
2023-02-12T14:21:56.813Z,1.85
2023-02-12T14:25:05.784Z,2.12
2023-02-12T14:28:13.659Z,2.20
2023-02-12T14:31:39.646Z,1.85
2023-02-12T14:34:52.743Z,2.55
2023-02-12T14:37:58.867Z,2.30
2023-02-12T14:41:06.030Z,1.67
2023-02-12T14:44:31.029Z,2.37
2023-02-12T14:47:51.273Z,3.02
2023-02-12T14:51:00.931Z,3.20
2023-02-12T14:54:07.309Z,2.02
2023-02-12T14:57:15.224Z,2.33
2023-02-12T15:00:37.522Z,3.10
2023-02-12T15:03:54.519Z,3.60
2023-02-12T15:07:08.278Z,2.83
2023-02-12T15:10:21.458Z,2.72
2023-02-12T15:13:38.552Z,2.60
2023-02-12T15:16:55.225Z,2.98
2023-02-12T15:20:09.708Z,2.70
2023-02-12T15:23:14.373Z,2.67
2023-02-12T15:26:20.982Z,2.20
2023-02-12T15:29:32.973Z,2.12
2023-02-12T15:32:43.774Z,2.50
2023-02-12T15:35:52.663Z,2.50
2023-02-12T15:38:59.309Z,2.92
2023-02-12T15:41:59.215Z,2.60
2023-02-12T15:45:24.187Z,2.50
2023-02-12T15:48:36.253Z,3.00
2023-02-12T15:51:49.461Z,3.22
2023-02-12T15:54:55.370Z,2.72
2023-02-12T15:58:07.054Z,2.80
2023-02-12T16:04:21.849Z,3.20
2023-02-12T16:07:27.762Z,2.98
2023-02-12T16:10:35.108Z,2.30
2023-02-12T16:13:48.827Z,2.65
2023-02-12T16:17:02.751Z,2.85
2023-02-12T16:20:13.393Z,2.42
2023-02-12T16:23:20.607Z,3.05
2023-02-12T16:26:32.792Z,3.20
2023-02-12T16:29:37.115Z,2.35
2023-02-12T16:32:57.039Z,2.75
2023-02-12T16:36:03.091Z,3.27
2023-02-12T16:39:11.947Z,3.92
2023-02-12T16:42:17.879Z,3.55
2023-02-12T16:45:46.087Z,3.67
2023-02-12T16:48:32.224Z,3.77
2023-02-12T16:51:37.422Z,3.30
2023-02-12T16:54:41.026Z,3.10
2023-02-12T16:57:34.960Z,3.33
2023-02-12T17:00:34.474Z,3.15
2023-02-12T17:03:40.204Z,3.47
2023-02-12T17:06:47.412Z,3.27
2023-02-12T17:10:05.642Z,3.20
2023-02-12T17:13:12.365Z,2.77
2023-02-12T17:16:30.386Z,2.75
2023-02-12T17:19:26.479Z,3.00
2023-02-12T17:22:36.937Z,2.70
2023-02-12T17:25:43.227Z,2.72
2023-02-12T17:28:48.430Z,2.87
2023-02-12T17:31:55.213Z,3.22
2023-02-12T17:34:54.944Z,2.98
2023-02-12T17:38:01.634Z,3.25
2023-02-12T17:41:07.775Z,3.42
2023-02-12T17:44:13.379Z,3.40
2023-02-12T17:47:17.935Z,2.90
2023-02-12T17:50:26.013Z,3.33
2023-02-12T17:53:31.530Z,3.17
2023-02-12T17:56:37.816Z,2.72
2023-02-12T17:59:42.985Z,3.20
2023-02-12T18:02:48.916Z,2.60
2023-02-12T18:05:59.650Z,3.35
2023-02-12T18:09:05.669Z,3.22
2023-02-12T18:12:12.587Z,3.25
2023-02-12T18:15:20.424Z,2.75
2023-02-12T18:18:26.213Z,3.25
2023-02-12T18:21:32.911Z,2.83
2023-02-12T18:24:40.630Z,3.37
2023-02-12T18:27:46.175Z,2.40
2023-02-12T18:30:52.538Z,2.70
2023-02-12T18:33:59.907Z,2.65
2023-02-12T18:37:04.249Z,2.50
2023-02-12T18:40:10.676Z,3.05
2023-02-12T18:43:16.914Z,3.05
2023-02-12T18:46:26.926Z,2.45
2023-02-12T18:49:33.198Z,3.15
2023-02-12T18:52:39.442Z,3.77
2023-02-12T18:55:38.089Z,4.35
2023-02-12T18:58:44.001Z,3.80
2023-02-12T19:01:49.462Z,3.33
2023-02-12T19:04:56.924Z,3.83
2023-02-12T19:07:55.881Z,3.30
2023-02-12T19:11:02.245Z,3.42
2023-02-12T19:14:09.211Z,3.85
2023-02-12T19:17:15.762Z,3.77
2023-02-12T19:20:23.278Z,3.55
2023-02-12T19:23:29.587Z,3.55
2023-02-12T19:26:38.421Z,3.52
2023-02-12T19:29:45.252Z,3.47
2023-02-12T19:32:52.002Z,2.98
2023-02-12T19:36:01.649Z,3.90
2023-02-12T19:39:07.664Z,2.60
2023-02-12T19:42:14.201Z,3.33
2023-02-12T19:45:20.528Z,3.62
2023-02-12T19:48:28.121Z,3.90
2023-02-12T19:51:36.342Z,3.98
2023-02-12T19:54:41.791Z,4.03
2023-02-12T19:57:47.628Z,4.03
2023-02-12T20:00:54.623Z,4.45
2023-02-12T20:04:03.220Z,4.72
2023-02-12T20:07:09.249Z,4.55
2023-02-12T20:10:16.725Z,4.70
2023-02-12T20:13:21.710Z,4.83
2023-02-12T20:16:29.009Z,5.28
2023-02-12T20:19:44.780Z,5.10
2023-02-12T20:22:53.421Z,4.50
2023-02-12T20:25:59.611Z,5.08
2023-02-12T20:29:05.786Z,2.72
2023-02-12T20:32:11.723Z,3.17
2023-02-12T20:35:16.916Z,3.27
2023-02-12T20:38:22.581Z,3.60
2023-02-12T20:41:27.853Z,3.58
2023-02-12T20:44:35.519Z,4.17
2023-02-12T20:47:40.938Z,4.25
2023-02-12T20:50:47.913Z,4.50
2023-02-12T20:53:53.819Z,5.60
2023-02-12T20:56:59.546Z,5.95
2023-02-12T21:00:06.028Z,4.15
2023-02-12T21:03:13.243Z,3.70
2023-02-12T21:06:18.844Z,2.95
2023-02-12T21:09:26.487Z,3.33
2023-02-12T21:12:32.968Z,6.40
2023-02-12T21:15:39.527Z,4.40
2023-02-12T21:18:45.291Z,5.65
2023-02-12T21:21:52.862Z,6.83
2023-02-12T21:24:59.892Z,7.07
2023-02-12T21:28:05.603Z,4.87
2023-02-12T21:31:10.366Z,5.08
2023-02-12T21:34:16.428Z,4.58
2023-02-12T21:37:22.064Z,5.75
2023-02-12T21:40:27.703Z,4.47
2023-02-12T21:43:34.626Z,5.00
2023-02-12T21:46:41.299Z,4.65
2023-02-12T21:49:46.816Z,4.40
2023-02-12T21:52:53.093Z,5.42
2023-02-12T21:55:59.709Z,3.95
2023-02-12T21:59:06.429Z,3.52
2023-02-12T22:02:12.584Z,4.40
2023-02-12T22:05:18.583Z,7.28
2023-02-12T22:08:23.845Z,3.52
2023-02-12T22:11:31.356Z,3.20
2023-02-12T22:14:37.449Z,2.95
2023-02-12T22:17:42.987Z,3.47
2023-02-12T22:20:48.990Z,2.50
2023-02-12T22:23:55.252Z,2.70
2023-02-12T22:27:00.694Z,2.70
2023-02-12T22:30:08.831Z,2.12
2023-02-12T22:33:14.135Z,1.90
2023-02-12T22:36:21.477Z,1.72
2023-02-12T22:39:28.395Z,2.02
2023-02-12T22:42:34.698Z,1.60
2023-02-12T22:45:40.114Z,2.27
2023-02-12T22:48:44.477Z,2.65
2023-02-12T22:51:51.272Z,2.42
2023-02-12T22:54:57.233Z,2.20
2023-02-12T22:58:03.078Z,2.92
2023-02-12T23:01:10.483Z,5.42
2023-02-12T23:04:15.897Z,4.83
2023-02-12T23:07:22.007Z,4.10
2023-02-12T23:10:27.086Z,3.67
2023-02-12T23:13:32.891Z,3.98
2023-02-12T23:16:38.471Z,4.12
2023-02-12T23:19:44.433Z,3.95
2023-02-12T23:22:50.460Z,3.00
2023-02-12T23:25:55.560Z,4.10
2023-02-12T23:29:01.623Z,3.77
2023-02-12T23:32:07.730Z,3.27
2023-02-12T23:35:12.841Z,2.80
2023-02-12T23:38:20.546Z,3.80
2023-02-12T23:41:26.639Z,3.33
2023-02-12T23:44:33.155Z,3.27
2023-02-12T23:47:39.025Z,3.52
2023-02-12T23:50:44.777Z,3.40
2023-02-12T23:53:50.985Z,3.12
2023-02-12T23:56:57.436Z,2.98
2023-02-12T23:59:58.530Z,3.90
